KSRQ

Sarasota-Bradenton International Airport

Airport
ICAO code
KSRQ
Summary
ICAO Region
NAM
ICAO Territory
Location

Sarasota / Bradenton, Florida,

Coordinates
27° 23' 44" N , 82° 33' 16" W
KCC
Metar
KSRQ 160553Z AUTO 11006KT 10SM CLR 18/13 A3010 RMK AO2 SLP192 T01830133 10228 20183 58004

Description

Sarasota–Bradenton International Airport is a public use airport in Sarasota County (terminal) and Manatee County (airfield). It is located 6 km north of the central business district of Sarasota and 9 km south of Bradenton.

Climatology

Humid “subtropical” climate (Köppen climate classification Cfa) - characterized by hot, humid summers and cool winters. Significant amounts of precipitation occur in all seasons in most areas.

Runways

Designator Length Width Surface Rops
4/22 1527 46 ASP Yes/Yes
14/32 2896 46 ASP Yes/Yes

Airport map

Aerial View

SKYbrary Partners:

Safety knowledge contributed by: